Time;durP1;ratioP1;P1;durP2;ratioP2;P2;SDS_P1;SDS_P2;PMS_P1;PMS_P2;Temp;Humidity;BMP_temperature;BMP_pressure;BME280_temperature;BME280_humidity;BME280_pressure;Samples;Min_cycle;Max_cycle;Signal;HPM_P1;HPM_P2
2023/03/07 00:00:41;;;;;;;8.83;7.87;;;-1.80;54.00;;;;;;4932563;28;20495;-53
2023/03/07 00:03:11;;;;;;;7.83;7.13;;;-1.70;53.70;;;;;;4933360;29;20503;-52
2023/03/07 00:05:39;;;;;;;10.60;8.03;;;-1.80;53.40;;;;;;4931109;29;20902;-54
2023/03/07 00:08:05;;;;;;;8.37;7.50;;;-1.70;53.10;;;;;;4932895;29;20503;-52
2023/03/07 00:10:32;;;;;;;11.03;8.00;;;-1.80;52.70;;;;;;4935350;29;20506;-53
2023/03/07 00:12:59;;;;;;;8.33;7.23;;;-1.80;52.50;;;;;;4921703;29;20543;-52
2023/03/07 00:15:26;;;;;;;8.43;7.67;;;-1.80;52.50;;;;;;4938369;29;20483;-52
2023/03/07 00:17:52;;;;;;;7.90;7.17;;;-1.80;52.20;;;;;;4938185;29;20538;-52
2023/03/07 00:20:19;;;;;;;9.10;8.20;;;-1.80;51.30;;;;;;4938165;29;21057;-53
2023/03/07 00:22:47;;;;;;;11.00;9.40;;;-1.70;47.40;;;;;;4937094;29;21045;-54
2023/03/07 00:25:14;;;;;;;9.30;8.40;;;-1.60;46.50;;;;;;4936412;29;20589;-53
2023/03/07 00:27:42;;;;;;;9.27;8.40;;;-1.50;45.00;;;;;;4936177;29;20472;-52
2023/03/07 00:30:11;;;;;;;10.93;9.83;;;-1.50;44.60;;;;;;4936120;29;20559;-52
2023/03/07 00:32:37;;;;;;;12.10;10.30;;;-1.40;43.30;;;;;;4940497;29;20451;-52
2023/03/07 00:35:04;;;;;;;13.33;10.03;;;-1.40;42.80;;;;;;4936858;29;20503;-53
2023/03/07 00:37:31;;;;;;;11.80;9.77;;;-1.30;42.40;;;;;;4937844;29;20530;-54
2023/03/07 00:39:59;;;;;;;11.57;9.60;;;-1.30;41.10;;;;;;4935862;29;20491;-52
2023/03/07 00:42:25;;;;;;;11.53;10.23;;;-1.30;40.50;;;;;;4937511;29;20951;-53
2023/03/07 00:44:52;;;;;;;12.87;11.07;;;-1.30;40.30;;;;;;4935953;29;21021;-54
2023/03/07 00:47:18;;;;;;;12.33;11.03;;;-1.20;39.40;;;;;;4929983;29;20879;-54
2023/03/07 00:49:45;;;;;;;12.90;11.30;;;-1.20;38.60;;;;;;4948494;29;20879;-52
2023/03/07 00:52:11;;;;;;;14.97;11.00;;;-1.10;37.70;;;;;;4956578;28;20929;-53
2023/03/07 00:54:38;;;;;;;11.87;10.47;;;-1.10;36.80;;;;;;4944395;28;20961;-53
2023/03/07 00:57:06;;;;;;;11.80;10.60;;;-1.00;34.80;;;;;;4936196;29;20514;-53
2023/03/07 00:59:32;;;;;;;13.73;12.23;;;-1.00;33.90;;;;;;4937351;29;20486;-54
2023/03/07 01:01:59;;;;;;;15.50;12.10;;;-1.00;33.10;;;;;;4936756;29;20460;-52
2023/03/07 01:04:26;;;;;;;14.07;12.53;;;-1.00;32.90;;;;;;4931316;29;20496;-52
2023/03/07 01:06:52;;;;;;;15.27;13.17;;;-1.00;32.30;;;;;;4948273;29;20896;-52
2023/03/07 01:09:19;;;;;;;15.77;13.53;;;-1.00;32.50;;;;;;4936299;29;20482;-53
2023/03/07 01:11:45;;;;;;;18.27;13.63;;;-1.00;32.10;;;;;;4936934;29;20516;-53
2023/03/07 01:14:13;;;;;;;18.00;14.87;;;-1.00;32.30;;;;;;4934877;29;20586;-54
2023/03/07 01:16:40;;;;;;;17.33;14.63;;;-1.00;32.70;;;;;;4937268;29;20542;-52
2023/03/07 01:19:08;;;;;;;19.50;15.60;;;-1.00;33.10;;;;;;4936228;29;20542;-53
2023/03/07 01:21:37;;;;;;;19.93;15.90;;;-1.10;33.60;;;;;;4935356;29;20986;-53
2023/03/07 01:24:04;;;;;;;18.87;15.73;;;-1.10;34.40;;;;;;4933384;29;20495;-53
2023/03/07 01:26:32;;;;;;;19.00;16.27;;;-1.10;35.00;;;;;;4936688;29;20614;-54
2023/03/07 01:29:01;;;;;;;18.40;15.07;;;-1.10;35.70;;;;;;4936988;29;20498;-54
2023/03/07 01:31:31;;;;;;;20.40;16.10;;;-1.10;35.80;;;;;;4930426;29;20469;-53
2023/03/07 01:33:59;;;;;;;20.43;17.37;;;-1.10;36.00;;;;;;4929589;29;20593;-55
2023/03/07 01:36:29;;;;;;;20.47;17.10;;;-1.10;36.30;;;;;;4934041;29;20474;-52
2023/03/07 01:38:57;;;;;;;22.33;16.93;;;-1.10;36.60;;;;;;4933957;29;20523;-53
2023/03/07 01:41:24;;;;;;;22.20;17.70;;;-1.00;36.80;;;;;;4933967;29;20465;-53
2023/03/07 01:43:50;;;;;;;26.03;21.53;;;-0.90;38.20;;;;;;4925652;29;20498;-53
2023/03/07 01:46:40;;;;;;;24.17;18.90;;;-0.90;42.70;;;;;;4927366;29;20515;-53
2023/03/07 01:49:22;;;;;;;24.90;20.23;;;-0.80;48.00;;;;;;4929970;29;20947;-53
2023/03/07 01:51:52;;;;;;;22.17;19.13;;;-0.80;48.50;;;;;;4935192;29;20495;-53
2023/03/07 01:54:20;;;;;;;21.37;16.67;;;-0.70;48.20;;;;;;4927349;29;20477;-54
2023/03/07 01:56:47;;;;;;;20.87;17.30;;;-0.70;47.90;;;;;;4933628;29;20480;-54
2023/03/07 01:59:19;;;;;;;19.50;16.77;;;-0.70;47.80;;;;;;4930412;29;20457;-52
2023/03/07 02:01:45;;;;;;;20.67;17.30;;;-0.70;47.60;;;;;;4934998;29;20491;-51
2023/03/07 02:04:18;;;;;;;19.83;16.83;;;-0.60;47.30;;;;;;4938120;29;20535;-52
2023/03/07 02:06:45;;;;;;;15.60;13.90;;;-0.50;47.10;;;;;;4926573;29;20523;-52
2023/03/07 02:09:19;;;;;;;17.20;15.40;;;-0.50;46.90;;;;;;4928454;29;20479;-52
2023/03/07 02:11:47;;;;;;;17.93;15.77;;;-0.50;46.90;;;;;;4930156;29;20506;-54
2023/03/07 02:14:14;;;;;;;15.93;14.23;;;-0.40;46.80;;;;;;4928134;29;20488;-53
2023/03/07 02:16:41;;;;;;;16.80;15.00;;;-0.40;46.90;;;;;;4925640;29;20491;-52
2023/03/07 02:19:21;;;;;;;16.17;14.43;;;-0.40;47.60;;;;;;4935911;29;20452;-53
2023/03/07 02:21:57;;;;;;;16.60;14.93;;;-0.30;47.70;;;;;;4920650;29;20492;-53
2023/03/07 02:24:28;;;;;;;20.60;17.47;;;-0.30;47.90;;;;;;4934430;29;20491;-53
2023/03/07 02:26:57;;;;;;;19.97;17.00;;;-0.30;48.20;;;;;;4930071;29;22114;-53
2023/03/07 02:29:24;;;;;;;21.40;17.47;;;-0.20;49.20;;;;;;4931879;29;20503;-52
2023/03/07 02:31:50;;;;;;;20.63;17.70;;;-0.30;50.00;;;;;;4933279;29;20468;-52
2023/03/07 02:34:19;;;;;;;22.50;19.10;;;-0.20;51.80;;;;;;4932373;29;20519;-52
2023/03/07 02:36:46;;;;;;;20.43;18.23;;;-0.30;51.70;;;;;;4932505;29;20971;-51
2023/03/07 02:39:13;;;;;;;23.07;17.60;;;-0.20;51.40;;;;;;4935414;29;21126;-52
2023/03/07 02:41:40;;;;;;;19.73;17.63;;;-0.20;51.80;;;;;;4933371;29;20477;-52
2023/03/07 02:44:08;;;;;;;18.17;16.27;;;-0.20;53.10;;;;;;4933059;29;20495;-52
2023/03/07 02:46:34;;;;;;;19.80;17.03;;;-0.10;50.50;;;;;;4930056;29;20925;-54
2023/03/07 02:49:01;;;;;;;20.83;18.17;;;-0.10;53.30;;;;;;4927129;29;20456;-52
2023/03/07 02:51:28;;;;;;;20.83;18.63;;;-0.10;53.90;;;;;;4935684;29;20464;-52
2023/03/07 02:53:54;;;;;;;21.37;17.80;;;-0.10;53.90;;;;;;4934619;29;20535;-52
2023/03/07 02:56:21;;;;;;;21.57;18.43;;;-0.10;54.00;;;;;;4931377;29;20519;-53
2023/03/07 02:58:47;;;;;;;23.40;19.47;;;-0.10;54.50;;;;;;4926595;29;20539;-51
2023/03/07 03:01:15;;;;;;;23.33;18.97;;;-0.10;54.80;;;;;;4935096;29;20479;-53
2023/03/07 03:03:43;;;;;;;22.53;18.87;;;-0.10;55.30;;;;;;4934696;29;21045;-52
2023/03/07 03:06:10;;;;;;;22.17;18.80;;;-0.10;54.70;;;;;;4933120;29;20530;-54
2023/03/07 03:08:36;;;;;;;22.87;18.40;;;-0.10;55.60;;;;;;4935020;29;21009;-52
2023/03/07 03:11:03;;;;;;;22.80;18.50;;;-0.10;55.60;;;;;;4934085;29;20463;-52
2023/03/07 03:13:29;;;;;;;20.30;17.43;;;-0.10;54.90;;;;;;4933492;29;20490;-53
2023/03/07 03:15:56;;;;;;;23.40;20.50;;;0.00;54.80;;;;;;4934316;29;20894;-52
2023/03/07 03:18:27;;;;;;;21.13;18.53;;;-0.10;54.40;;;;;;4934866;29;20460;-52
2023/03/07 03:20:53;;;;;;;22.93;19.63;;;0.00;54.20;;;;;;4935113;29;20514;-52
2023/03/07 03:23:20;;;;;;;23.40;19.07;;;0.00;53.50;;;;;;4935368;29;20452;-52
2023/03/07 03:25:56;;;;;;;25.90;21.83;;;0.00;53.50;;;;;;4932881;29;20483;-52
2023/03/07 03:28:22;;;;;;;23.60;20.13;;;0.00;54.20;;;;;;4929619;29;20444;-53
2023/03/07 03:30:57;;;;;;;24.57;19.80;;;0.10;54.00;;;;;;4925078;29;20522;-52
2023/03/07 03:33:26;;;;;;;23.60;19.53;;;0.10;54.20;;;;;;4934755;29;20454;-52
2023/03/07 03:35:52;;;;;;;24.03;19.53;;;0.10;53.90;;;;;;4932820;29;20472;-51
2023/03/07 03:38:19;;;;;;;26.77;21.90;;;0.20;54.60;;;;;;4931984;29;20554;-52
2023/03/07 03:40:45;;;;;;;27.23;22.37;;;0.20;55.60;;;;;;4929816;29;20523;-53
2023/03/07 03:43:12;;;;;;;23.67;20.20;;;0.20;55.20;;;;;;4927049;29;20495;-52
2023/03/07 03:45:39;;;;;;;27.57;22.30;;;0.20;55.90;;;;;;4931443;29;20487;-52
2023/03/07 03:48:06;;;;;;;27.30;22.90;;;0.20;56.20;;;;;;4936428;29;20467;-53
2023/03/07 03:50:34;;;;;;;28.30;22.10;;;0.30;56.00;;;;;;4932489;29;20492;-53
2023/03/07 03:53:02;;;;;;;24.97;20.73;;;0.30;55.00;;;;;;4933507;29;20471;-52
2023/03/07 03:55:28;;;;;;;29.83;23.17;;;0.30;54.50;;;;;;4931329;29;20574;-53
2023/03/07 03:57:55;;;;;;;22.97;19.40;;;0.40;56.90;;;;;;4931988;29;20565;-53
2023/03/07 04:00:22;;;;;;;26.77;21.33;;;0.40;57.90;;;;;;4933534;29;20480;-53
2023/03/07 04:02:49;;;;;;;25.87;22.03;;;0.50;60.40;;;;;;4931296;29;20914;-52
2023/03/07 04:05:16;;;;;;;27.70;21.43;;;0.50;61.70;;;;;;4924041;29;20480;-53
2023/03/07 04:07:44;;;;;;;26.80;22.43;;;0.50;63.20;;;;;;4933333;29;20490;-52
2023/03/07 04:10:11;;;;;;;28.97;23.53;;;0.60;64.50;;;;;;4924375;29;20456;-52
2023/03/07 04:12:38;;;;;;;26.73;22.57;;;0.60;68.30;;;;;;4932525;29;20523;-53
2023/03/07 04:15:06;;;;;;;26.87;21.10;;;0.70;69.80;;;;;;4928632;29;20574;-53
2023/03/07 04:17:32;;;;;;;24.87;22.00;;;0.70;71.70;;;;;;4933391;29;20468;-53
2023/03/07 04:19:59;;;;;;;28.00;22.00;;;0.80;74.50;;;;;;4932297;29;20499;-53
2023/03/07 04:22:25;;;;;;;26.33;21.07;;;0.80;74.60;;;;;;4930954;29;20555;-54
2023/03/07 04:24:53;;;;;;;29.13;22.50;;;0.80;73.30;;;;;;4930912;29;20547;-53
2023/03/07 04:27:20;;;;;;;26.37;22.50;;;0.90;74.60;;;;;;4933443;29;20487;-54
2023/03/07 04:29:46;;;;;;;28.53;23.60;;;0.90;73.60;;;;;;4931018;29;20837;-52
2023/03/07 04:32:13;;;;;;;29.73;21.57;;;0.90;73.90;;;;;;4934934;29;20448;-52
2023/03/07 04:34:40;;;;;;;25.20;20.13;;;1.00;72.80;;;;;;4935879;29;20491;-52
2023/03/07 04:37:06;;;;;;;25.47;21.23;;;1.00;72.50;;;;;;4933971;29;20440;-52
2023/03/07 04:39:33;;;;;;;26.13;21.00;;;1.00;70.70;;;;;;4941524;29;20479;-52
2023/03/07 04:42:01;;;;;;;22.63;17.70;;;1.00;69.90;;;;;;4932041;28;20523;-53
2023/03/07 04:44:27;;;;;;;25.80;20.17;;;1.00;69.60;;;;;;4929730;29;20491;-52
2023/03/07 04:46:54;;;;;;;28.13;22.27;;;1.00;68.60;;;;;;4936637;29;20577;-52
2023/03/07 04:49:21;;;;;;;25.43;20.10;;;1.00;68.50;;;;;;4929755;29;20870;-53
2023/03/07 04:51:47;;;;;;;27.40;20.17;;;0.90;64.00;;;;;;4932220;29;20519;-52
2023/03/07 04:54:14;;;;;;;27.83;20.97;;;0.90;59.70;;;;;;4930046;29;20511;-54
2023/03/07 04:56:40;;;;;;;24.93;20.20;;;1.00;60.70;;;;;;4936918;29;20463;-55
2023/03/07 04:59:08;;;;;;;24.67;20.13;;;0.90;57.10;;;;;;4934109;29;20449;-53
2023/03/07 05:01:35;;;;;;;26.50;20.93;;;0.90;55.30;;;;;;4933141;29;20546;-53
2023/03/07 05:04:01;;;;;;;26.70;19.17;;;0.80;54.80;;;;;;4934067;29;20519;-53
2023/03/07 05:06:28;;;;;;;26.73;21.27;;;0.80;51.00;;;;;;4936908;29;20538;-53
2023/03/07 05:08:55;;;;;;;22.47;18.47;;;0.80;49.30;;;;;;4937355;29;20511;-52
2023/03/07 05:11:21;;;;;;;22.40;18.87;;;0.80;48.90;;;;;;4934838;29;20491;-53
2023/03/07 05:13:48;;;;;;;26.90;19.00;;;0.80;47.70;;;;;;4935815;29;20518;-53
2023/03/07 05:16:16;;;;;;;26.47;19.97;;;0.80;47.00;;;;;;4934934;29;20880;-53
2023/03/07 05:18:43;;;;;;;25.60;19.27;;;0.80;46.10;;;;;;4941771;29;20493;-52
2023/03/07 05:21:09;;;;;;;23.00;17.63;;;0.80;45.50;;;;;;4934969;28;20464;-52
2023/03/07 05:23:36;;;;;;;23.23;19.90;;;0.80;46.20;;;;;;4929347;29;20483;-52
2023/03/07 05:26:02;;;;;;;21.43;18.27;;;0.80;45.90;;;;;;4937125;29;20483;-52
2023/03/07 05:28:29;;;;;;;22.67;18.33;;;0.80;45.60;;;;;;4929323;29;20534;-52
2023/03/07 05:30:56;;;;;;;22.27;18.07;;;0.80;45.20;;;;;;4926454;29;21029;-51
2023/03/07 05:33:24;;;;;;;21.63;16.73;;;0.80;45.10;;;;;;4935826;29;20527;-52
2023/03/07 05:35:51;;;;;;;22.50;15.80;;;0.80;44.80;;;;;;4936105;29;20456;-53
2023/03/07 05:38:18;;;;;;;20.07;16.77;;;0.90;43.80;;;;;;4932279;29;20475;-54
2023/03/07 05:40:44;;;;;;;19.23;15.77;;;0.90;43.80;;;;;;4936819;29;20554;-56
2023/03/07 05:43:11;;;;;;;21.63;15.97;;;0.80;44.40;;;;;;4924640;29;20538;-52
2023/03/07 05:45:37;;;;;;;17.60;14.93;;;0.80;44.80;;;;;;4919706;29;20452;-52
2023/03/07 05:48:04;;;;;;;17.57;15.57;;;0.80;45.10;;;;;;4934083;29;20495;-52
2023/03/07 05:50:32;;;;;;;19.60;15.40;;;0.70;45.20;;;;;;4927901;29;20530;-54
2023/03/07 05:52:59;;;;;;;20.37;15.00;;;0.80;45.40;;;;;;4931705;29;20551;-53
2023/03/07 05:55:25;;;;;;;20.07;16.50;;;0.80;45.70;;;;;;4934031;29;20488;-52
2023/03/07 05:57:52;;;;;;;16.40;14.23;;;0.70;45.20;;;;;;4929845;29;20496;-53
2023/03/07 06:00:20;;;;;;;17.77;15.10;;;0.70;45.60;;;;;;4927179;29;20464;-53
2023/03/07 06:02:46;;;;;;;16.27;14.50;;;0.80;45.50;;;;;;4924892;29;20448;-53
2023/03/07 06:05:13;;;;;;;17.90;14.93;;;0.80;46.20;;;;;;4923502;29;20487;-53
2023/03/07 06:07:41;;;;;;;17.70;15.30;;;0.80;45.60;;;;;;4935568;29;20515;-52
2023/03/07 06:10:08;;;;;;;21.23;14.57;;;0.80;46.00;;;;;;4934141;29;20511;-52
2023/03/07 06:12:35;;;;;;;17.37;14.70;;;0.80;46.20;;;;;;4934364;29;20490;-52
2023/03/07 06:15:02;;;;;;;18.17;14.87;;;0.90;46.20;;;;;;4929454;29;20568;-52
2023/03/07 06:17:29;;;;;;;23.37;14.40;;;0.90;46.60;;;;;;4929376;29;21068;-52
2023/03/07 06:19:55;;;;;;;16.77;13.67;;;0.90;46.70;;;;;;4930520;29;20510;-52
2023/03/07 06:22:22;;;;;;;17.17;15.23;;;0.90;46.40;;;;;;4929603;29;20464;-52
2023/03/07 06:24:50;;;;;;;18.37;15.20;;;0.90;45.70;;;;;;4928266;29;21017;-52
2023/03/07 06:27:17;;;;;;;15.97;14.27;;;0.90;44.80;;;;;;4924091;29;20479;-52
2023/03/07 06:29:44;;;;;;;17.40;14.33;;;0.90;44.90;;;;;;4923815;29;20460;-52
2023/03/07 06:32:10;;;;;;;18.63;15.30;;;1.00;45.70;;;;;;4927243;29;20603;-52
2023/03/07 06:34:37;;;;;;;16.40;14.10;;;1.00;45.90;;;;;;4927790;29;20484;-50
2023/03/07 06:37:04;;;;;;;16.60;13.70;;;1.00;45.60;;;;;;4924732;29;20461;-51
2023/03/07 06:39:31;;;;;;;15.07;13.43;;;1.10;44.90;;;;;;4924390;29;20943;-52
2023/03/07 06:41:58;;;;;;;15.10;13.47;;;1.10;43.10;;;;;;4928920;29;20503;-52
2023/03/07 06:44:25;;;;;;;17.93;14.20;;;1.10;42.60;;;;;;4926572;29;20586;-50
2023/03/07 06:46:52;;;;;;;15.63;14.03;;;1.10;42.70;;;;;;4928743;29;20550;-51
2023/03/07 06:49:18;;;;;;;18.83;14.80;;;1.10;42.60;;;;;;4929036;29;20528;-50
2023/03/07 06:51:45;;;;;;;16.57;14.10;;;1.20;42.70;;;;;;4927497;29;20843;-52
2023/03/07 06:54:12;;;;;;;16.87;13.30;;;1.20;42.60;;;;;;4927601;29;20476;-51
2023/03/07 06:56:38;;;;;;;16.07;13.73;;;1.20;42.60;;;;;;4925155;29;20463;-51
2023/03/07 06:59:06;;;;;;;15.20;12.70;;;1.20;42.60;;;;;;4925508;29;21107;-51
2023/03/07 07:01:34;;;;;;;16.30;14.53;;;1.30;42.50;;;;;;4929089;29;20464;-50
2023/03/07 07:04:01;;;;;;;17.47;13.77;;;1.30;42.60;;;;;;4931601;29;20483;-51
2023/03/07 07:06:27;;;;;;;15.37;13.57;;;1.30;42.50;;;;;;4930430;29;20515;-52
2023/03/07 07:08:55;;;;;;;19.13;15.53;;;1.30;42.00;;;;;;4931444;29;20543;-51
2023/03/07 07:11:22;;;;;;;16.63;14.20;;;1.30;42.10;;;;;;4931559;29;20958;-52
2023/03/07 07:13:49;;;;;;;20.27;13.63;;;1.30;41.90;;;;;;4924701;29;20499;-52
2023/03/07 07:16:18;;;;;;;19.20;15.23;;;1.40;41.80;;;;;;4931109;29;20468;-52
2023/03/07 07:18:45;;;;;;;14.77;13.07;;;1.40;42.20;;;;;;4931125;29;20549;-52
2023/03/07 07:21:11;;;;;;;15.13;13.17;;;1.50;42.60;;;;;;4922599;29;20465;-51
2023/03/07 07:23:38;;;;;;;18.77;15.57;;;1.50;43.70;;;;;;4925251;29;20983;-52
2023/03/07 07:26:05;;;;;;;20.17;14.43;;;1.50;46.40;;;;;;4930541;29;20472;-51
2023/03/07 07:28:32;;;;;;;15.43;11.83;;;1.60;47.30;;;;;;4924879;29;20854;-51
2023/03/07 07:30:59;;;;;;;18.03;14.97;;;1.60;48.80;;;;;;4921469;29;20468;-51
2023/03/07 07:33:27;;;;;;;17.33;14.17;;;1.60;49.90;;;;;;4934556;29;20452;-51
2023/03/07 07:35:54;;;;;;;16.60;13.90;;;1.70;53.30;;;;;;4927728;29;20468;-52
2023/03/07 07:38:20;;;;;;;19.37;15.80;;;1.70;54.90;;;;;;4931473;29;20464;-51
2023/03/07 07:40:47;;;;;;;17.87;14.10;;;1.70;55.40;;;;;;4927117;29;20503;-50
2023/03/07 07:43:15;;;;;;;16.37;14.07;;;1.70;56.90;;;;;;4928552;29;20488;-51
2023/03/07 07:45:42;;;;;;;17.10;14.23;;;1.70;54.70;;;;;;4924439;29;20473;-50
2023/03/07 07:48:09;;;;;;;18.17;14.00;;;1.80;52.90;;;;;;4929535;29;20523;-52
2023/03/07 07:50:37;;;;;;;15.50;13.40;;;1.80;53.00;;;;;;4930838;29;20829;-51
2023/03/07 07:53:03;;;;;;;17.07;14.33;;;1.80;54.40;;;;;;4928606;29;20641;-50
2023/03/07 07:55:30;;;;;;;16.43;13.77;;;1.80;54.50;;;;;;4929912;29;20519;-50
2023/03/07 07:57:57;;;;;;;16.40;13.97;;;1.90;54.40;;;;;;4928665;29;22066;-51
2023/03/07 08:00:24;;;;;;;14.57;13.03;;;1.90;57.80;;;;;;4931716;29;20480;-51
2023/03/07 08:02:51;;;;;;;14.37;11.97;;;1.90;57.80;;;;;;4929693;29;20499;-51
2023/03/07 08:05:19;;;;;;;16.77;13.13;;;1.90;59.20;;;;;;4927295;29;20527;-50
2023/03/07 08:07:47;;;;;;;15.50;13.73;;;2.00;61.30;;;;;;4930517;29;21090;-50
2023/03/07 08:10:16;;;;;;;13.47;11.80;;;2.00;65.70;;;;;;4929696;29;20464;-52
2023/03/07 08:12:43;;;;;;;13.30;11.90;;;2.10;69.80;;;;;;4931670;29;20472;-51
2023/03/07 08:15:10;;;;;;;15.37;12.47;;;2.10;74.60;;;;;;4930002;29;20487;-51
2023/03/07 08:17:37;;;;;;;14.20;12.10;;;2.10;71.10;;;;;;4930223;29;20483;-51
2023/03/07 08:20:07;;;;;;;14.20;12.40;;;2.20;72.00;;;;;;4930589;29;20468;-51
2023/03/07 08:22:33;;;;;;;13.13;11.40;;;2.20;69.60;;;;;;4930951;29;20844;-50
2023/03/07 08:25:01;;;;;;;14.53;12.80;;;2.20;66.80;;;;;;4930035;29;21073;-50
2023/03/07 08:27:28;;;;;;;14.60;12.80;;;2.20;65.90;;;;;;4932107;29;20491;-51
2023/03/07 08:29:55;;;;;;;15.33;12.27;;;2.30;65.70;;;;;;4931453;29;20564;-52
2023/03/07 08:32:22;;;;;;;14.93;12.90;;;2.30;69.30;;;;;;4929744;29;20502;-51
2023/03/07 08:34:48;;;;;;;15.60;12.33;;;2.30;66.30;;;;;;4934146;29;20486;-50
2023/03/07 08:37:15;;;;;;;16.10;13.60;;;2.30;63.60;;;;;;4934959;29;20487;-52
2023/03/07 08:39:42;;;;;;;14.90;12.63;;;2.30;68.40;;;;;;4939650;28;20519;-51
2023/03/07 08:42:10;;;;;;;15.27;13.13;;;2.40;67.10;;;;;;4933006;29;20499;-52
2023/03/07 08:44:37;;;;;;;13.20;11.80;;;2.50;66.60;;;;;;4939224;29;20585;-52
2023/03/07 08:47:03;;;;;;;15.93;11.67;;;2.50;71.10;;;;;;4931559;29;20522;-49
2023/03/07 08:49:30;;;;;;;14.00;12.50;;;2.60;74.30;;;;;;4933735;29;20476;-51
2023/03/07 08:51:57;;;;;;;14.63;12.30;;;2.60;77.30;;;;;;4927495;29;20511;-51
2023/03/07 08:54:23;;;;;;;14.67;11.43;;;2.70;81.90;;;;;;4927801;29;20491;-54
2023/03/07 08:56:50;;;;;;;14.57;11.97;;;2.80;89.40;;;;;;4929632;29;20518;-52
2023/03/07 08:59:18;;;;;;;15.80;12.47;;;3.10;93.40;;;;;;4934968;29;20850;-51
2023/03/07 09:01:44;;;;;;;14.80;12.10;;;3.10;95.60;;;;;;4933047;29;20463;-51
2023/03/07 09:04:11;;;;;;;20.87;12.20;;;2.90;99.90;;;;;;4927332;29;20899;-51
2023/03/07 09:06:38;;;;;;;14.33;12.50;;;3.00;98.80;;;;;;4933581;29;20523;-52
2023/03/07 09:09:05;;;;;;;12.63;10.80;;;3.10;99.90;;;;;;4933427;29;20515;-50
2023/03/07 09:11:32;;;;;;;15.17;12.40;;;3.10;99.90;;;;;;4927940;29;20486;-51
2023/03/07 09:13:58;;;;;;;15.10;11.90;;;3.00;96.40;;;;;;4930720;29;20839;-52
2023/03/07 09:16:26;;;;;;;13.63;11.87;;;2.90;94.50;;;;;;4930532;29;20471;-51
2023/03/07 09:18:53;;;;;;;14.53;12.93;;;3.00;89.70;;;;;;4934955;29;20503;-50
2023/03/07 09:21:20;;;;;;;13.63;12.23;;;3.00;92.00;;;;;;4935330;29;20957;-51
2023/03/07 09:23:46;;;;;;;15.03;12.70;;;3.10;87.70;;;;;;4936428;29;20515;-51
2023/03/07 09:26:13;;;;;;;16.17;12.80;;;3.20;91.30;;;;;;4936778;29;20495;-51
2023/03/07 09:28:40;;;;;;;13.00;11.67;;;3.30;99.90;;;;;;4926261;29;20925;-50
2023/03/07 09:31:07;;;;;;;12.80;10.70;;;3.40;99.90;;;;;;4932686;29;21006;-50
2023/03/07 09:33:35;;;;;;;11.87;10.57;;;3.50;99.90;;;;;;4934483;29;20495;-50
2023/03/07 09:36:04;;;;;;;13.00;11.37;;;3.60;99.90;;;;;;4935612;29;20555;-52
2023/03/07 09:38:31;;;;;;;12.57;11.23;;;3.70;99.90;;;;;;4935550;29;20476;-50
2023/03/07 09:41:07;;;;;;;11.50;10.30;;;3.80;99.90;;;;;;4930826;29;20966;-51
2023/03/07 09:43:43;;;;;;;12.03;10.37;;;3.80;99.90;;;;;;4932155;29;20499;-51
2023/03/07 09:46:20;;;;;;;12.00;8.50;;;3.90;99.90;;;;;;4930039;29;20989;-51
2023/03/07 09:49:06;;;;;;;9.77;8.10;;;4.10;99.90;;;;;;4926814;29;20519;-51
2023/03/07 09:51:38;;;;;;;9.17;8.27;;;4.20;99.90;;;;;;4930586;29;20499;-51
2023/03/07 09:54:12;;;;;;;9.20;7.87;;;4.40;99.90;;;;;;4934384;29;20480;-50
2023/03/07 09:56:44;;;;;;;8.53;7.63;;;4.50;99.90;;;;;;4929545;29;20470;-50
2023/03/07 09:59:20;;;;;;;7.70;7.00;;;4.50;99.90;;;;;;4933927;29;21047;-50
2023/03/07 10:01:51;;;;;;;7.40;6.70;;;4.60;99.90;;;;;;4932044;29;20474;-50
2023/03/07 10:04:22;;;;;;;6.93;6.30;;;4.60;99.90;;;;;;4932242;29;20494;-51
2023/03/07 10:06:53;;;;;;;7.80;6.47;;;4.90;99.90;;;;;;4933999;29;20476;-51
2023/03/07 10:09:22;;;;;;;9.00;6.10;;;5.60;91.60;;;;;;4938435;29;20565;-51
2023/03/07 10:12:07;;;;;;;5.93;5.33;;;5.40;33.60;;;;;;4938264;29;20447;-50
2023/03/07 10:14:47;;;;;;;7.90;5.77;;;5.10;30.30;;;;;;4944980;28;20554;-50
2023/03/07 10:17:22;;;;;;;6.40;5.73;;;5.10;28.10;;;;;;4937584;29;20507;-51
2023/03/07 10:19:52;;;;;;;6.63;6.07;;;5.80;47.80;;;;;;4934361;29;21052;-51
2023/03/07 10:22:27;;;;;;;6.10;5.50;;;5.60;55.20;;;;;;4935600;29;20523;-51
2023/03/07 10:25:07;;;;;;;5.83;5.23;;;5.60;52.10;;;;;;4933191;29;20499;-51
2023/03/07 10:27:34;;;;;;;5.03;4.53;;;5.70;55.50;;;;;;4934112;29;20856;-51
2023/03/07 10:30:06;;;;;;;5.17;4.67;;;5.30;69.10;;;;;;4920968;29;20846;-50
2023/03/07 10:32:37;;;;;;;7.40;5.23;;;5.30;59.30;;;;;;4923612;29;20470;-51
2023/03/07 10:35:19;;;;;;;7.03;4.57;;;5.20;54.60;;;;;;4932146;29;20515;-50
2023/03/07 10:37:50;;;;;;;4.87;4.47;;;5.00;67.10;;;;;;4925949;29;20844;-50
2023/03/07 10:40:23;;;;;;;4.97;4.40;;;5.00;43.40;;;;;;4928066;29;20465;-51
2023/03/07 10:42:49;;;;;;;5.73;4.20;;;4.90;49.30;;;;;;4923186;29;21033;-51
2023/03/07 10:45:16;;;;;;;5.13;4.60;;;4.80;56.70;;;;;;4930561;29;20495;-51
2023/03/07 10:47:43;;;;;;;5.47;4.97;;;4.70;53.40;;;;;;4931216;29;20902;-51
2023/03/07 10:50:29;;;;;;;5.30;4.23;;;4.60;50.30;;;;;;4928469;29;20463;-51
2023/03/07 10:52:58;;;;;;;7.00;5.07;;;4.60;53.10;;;;;;4933452;29;20460;-51
2023/03/07 10:55:36;;;;;;;5.20;4.70;;;4.80;46.80;;;;;;4934190;29;20475;-51
2023/03/07 10:58:15;;;;;;;8.00;5.83;;;4.80;46.40;;;;;;4934248;29;20459;-51
2023/03/07 11:00:43;;;;;;;5.67;4.20;;;5.00;40.90;;;;;;4934556;29;20502;-51
2023/03/07 11:03:23;;;;;;;4.80;4.40;;;5.00;39.70;;;;;;4931580;29;20564;-51
2023/03/07 11:05:51;;;;;;;4.60;4.20;;;5.10;51.70;;;;;;4927881;29;20546;-51
2023/03/07 11:08:27;;;;;;;3.70;3.50;;;5.00;55.50;;;;;;4925969;29;20507;-50
2023/03/07 11:10:54;;;;;;;15.53;3.97;;;4.90;55.50;;;;;;4934610;29;21023;-52
2023/03/07 11:13:22;;;;;;;9.73;3.73;;;4.90;56.00;;;;;;4933014;29;20514;-50
2023/03/07 11:15:49;;;;;;;3.23;2.50;;;4.90;63.40;;;;;;4931404;29;20451;-52
2023/03/07 11:18:31;;;;;;;2.43;2.33;;;4.90;65.10;;;;;;4940860;29;20466;-50
2023/03/07 11:20:59;;;;;;;2.33;2.23;;;5.00;63.20;;;;;;4933335;29;20526;-50
2023/03/07 11:23:29;;;;;;;3.13;2.10;;;5.10;67.50;;;;;;4933912;29;20526;-51
2023/03/07 11:25:57;;;;;;;3.77;1.90;;;5.20;65.90;;;;;;4933378;29;20513;-51
2023/03/07 11:28:29;;;;;;;2.50;2.03;;;5.20;64.30;;;;;;4931906;29;20491;-50
2023/03/07 11:31:12;;;;;;;2.53;1.90;;;5.00;66.80;;;;;;4921849;29;20467;-51
2023/03/07 11:33:48;;;;;;;3.80;2.17;;;4.90;60.50;;;;;;4932434;29;20555;-51
2023/03/07 11:36:19;;;;;;;2.47;1.33;;;4.90;60.80;;;;;;4934406;29;20530;-51
2023/03/07 11:38:57;;;;;;;2.30;1.50;;;5.00;65.80;;;;;;4930384;29;20531;-51
2023/03/07 11:41:28;;;;;;;2.63;2.43;;;4.80;68.60;;;;;;4928096;29;20472;-51
2023/03/07 11:44:04;;;;;;;1.60;1.50;;;5.00;63.00;;;;;;4933200;29;20934;-51
2023/03/07 11:46:42;;;;;;;7.20;2.80;;;4.80;70.40;;;;;;4930489;29;20476;-51
2023/03/07 11:49:24;;;;;;;2.10;1.80;;;4.90;57.90;;;;;;4929168;29;20511;-51
2023/03/07 11:52:06;;;;;;;3.80;1.80;;;4.70;68.80;;;;;;4931209;29;20867;-50
2023/03/07 11:54:41;;;;;;;3.90;2.40;;;4.70;69.50;;;;;;4926638;29;20521;-51
2023/03/07 11:57:19;;;;;;;2.37;1.37;;;4.60;67.50;;;;;;4934080;29;20522;-51
2023/03/07 12:00:15;;;;;;;4.93;1.80;;;4.60;65.80;;;;;;4932397;29;20527;-52
2023/03/07 12:03:19;;;;;;;3.53;1.60;;;4.60;61.50;;;;;;4929655;29;20472;-51
2023/03/07 12:05:56;;;;;;;3.80;2.13;;;4.50;60.10;;;;;;4903413;29;20955;-51
2023/03/07 12:08:37;;;;;;;4.40;1.93;;;4.40;63.80;;;;;;4933018;29;21013;-51
2023/03/07 12:11:18;;;;;;;5.77;1.30;;;4.40;60.70;;;;;;4935379;29;20470;-51
2023/03/07 12:13:55;;;;;;;2.50;1.60;;;4.30;57.40;;;;;;4933615;29;20495;-50
2023/03/07 12:16:27;;;;;;;1.67;1.57;;;4.20;55.10;;;;;;4936364;29;20505;-51
2023/03/07 12:19:23;;;;;;;2.43;1.57;;;4.20;54.90;;;;;;4951168;29;20499;-52
2023/03/07 12:22:07;;;;;;;2.30;2.13;;;4.20;55.20;;;;;;4938038;29;20443;-50
2023/03/07 12:24:39;;;;;;;1.43;1.27;;;4.10;51.70;;;;;;4934075;29;20487;-50
2023/03/07 12:27:14;;;;;;;5.00;1.43;;;4.10;49.10;;;;;;4937024;29;20526;-50
2023/03/07 12:29:44;;;;;;;2.30;1.10;;;4.10;47.80;;;;;;4937788;29;20491;-51
2023/03/07 12:32:13;;;;;;;2.00;1.43;;;4.10;44.60;;;;;;4937926;29;20448;-50
2023/03/07 12:34:45;;;;;;;1.20;1.20;;;4.10;40.10;;;;;;4937495;29;20487;-51
2023/03/07 12:37:17;;;;;;;8.70;1.90;;;3.90;25.90;;;;;;4938109;29;20447;-50
2023/03/07 12:39:51;;;;;;;3.13;1.40;;;3.90;99.90;;;;;;4937818;29;20495;-50
2023/03/07 12:42:29;;;;;;;1.50;1.40;;;3.90;99.90;;;;;;4937870;29;20806;-50
2023/03/07 12:44:59;;;;;;;1.90;1.07;;;3.80;99.90;;;;;;4937580;29;20534;-51
2023/03/07 12:47:30;;;;;;;2.87;1.00;;;3.70;99.90;;;;;;4944348;29;20451;-50
2023/03/07 12:50:01;;;;;;;2.70;1.37;;;3.60;99.90;;;;;;4939414;29;20491;-52